Time;durP1;ratioP1;P1;durP2;ratioP2;P2;SDS_P1;SDS_P2;PMS_P1;PMS_P2;Temp;Humidity;BMP_temperature;BMP_pressure;BME280_temperature;BME280_humidity;BME280_pressure;Samples;Min_cycle;Max_cycle;Signal;HPM_P1;HPM_P2
2023/11/07 00:01:44;;;;;;;5.40;2.40;;;;;;;19.43;37.48;99636.55;108189;1256;61769;-68
2023/11/07 00:04:11;;;;;;;6.90;2.70;;;;;;;19.38;37.72;99638.89;108180;1254;60430;-68
2023/11/07 00:06:40;;;;;;;6.50;3.00;;;;;;;19.36;37.63;99638.31;108050;1258;72330;-67
2023/11/07 00:09:08;;;;;;;5.60;2.20;;;;;;;19.25;37.77;99641.02;108297;1254;70318;-67
2023/11/07 00:11:34;;;;;;;4.50;2.60;;;;;;;19.19;38.06;99649.66;108272;1253;71228;-66
2023/11/07 00:14:02;;;;;;;5.30;2.60;;;;;;;18.98;38.15;99649.20;108282;1252;60425;-66
2023/11/07 00:16:30;;;;;;;5.80;2.50;;;;;;;19.23;38.19;99648.99;108370;1252;60316;-68
2023/11/07 00:18:56;;;;;;;4.00;2.00;;;;;;;19.19;38.13;99654.13;108170;1254;72333;-66
2023/11/07 00:21:23;;;;;;;5.30;2.50;;;;;;;18.99;38.14;99654.83;108308;1253;70183;-66
2023/11/07 00:23:49;;;;;;;5.30;2.40;;;;;;;19.05;38.40;99661.63;108225;1256;72504;-67
2023/11/07 00:26:18;;;;;;;5.60;2.20;;;;;;;18.91;38.39;99663.65;108238;1254;59556;-67
2023/11/07 00:28:47;;;;;;;5.20;2.10;;;;;;;18.89;38.46;99669.88;108236;1254;60600;-66
2023/11/07 00:31:14;;;;;;;5.10;2.20;;;;;;;18.95;38.87;99665.80;108297;1255;74108;-66
2023/11/07 00:33:40;;;;;;;6.20;2.20;;;;;;;18.84;38.47;99668.62;108247;1255;70718;-68
2023/11/07 00:36:08;;;;;;;5.30;2.40;;;;;;;18.95;38.65;99669.15;108191;1254;72540;-67
2023/11/07 00:38:34;;;;;;;5.30;2.50;;;;;;;18.99;38.36;99668.70;108233;1252;60018;-67
2023/11/07 00:41:01;;;;;;;6.00;2.20;;;;;;;18.91;38.50;99670.73;108316;1252;60400;-68
2023/11/07 00:43:28;;;;;;;8.30;2.70;;;;;;;18.94;38.73;99666.80;108148;1254;72710;-67
2023/11/07 00:45:54;;;;;;;3.40;2.30;;;;;;;18.81;38.72;99670.28;108158;1254;61130;-68
2023/11/07 00:48:21;;;;;;;4.00;2.40;;;;;;;18.79;38.96;99673.48;108366;1253;72566;-66
2023/11/07 00:50:48;;;;;;;4.30;2.20;;;;;;;18.87;38.82;99668.39;108337;1254;61906;-67
2023/11/07 00:53:14;;;;;;;6.30;2.30;;;;;;;18.83;38.68;99673.69;108295;1252;60460;-68
2023/11/07 00:55:41;;;;;;;5.30;2.30;;;;;;;19.03;38.73;99673.56;108268;1253;74888;-67
2023/11/07 00:58:07;;;;;;;9.90;2.60;;;;;;;18.95;38.59;99676.14;108237;1254;70345;-66
2023/11/07 01:00:35;;;;;;;3.20;2.00;;;;;;;18.96;38.86;99685.28;108249;1253;72525;-67
2023/11/07 01:03:02;;;;;;;3.60;2.20;;;;;;;19.02;38.94;99688.08;108247;1253;60372;-66
2023/11/07 01:05:29;;;;;;;5.40;2.20;;;;;;;18.94;38.75;99684.17;108338;1252;59340;-67
2023/11/07 01:07:56;;;;;;;6.50;2.20;;;;;;;19.08;39.00;99688.27;108338;1253;73742;-67
2023/11/07 01:10:22;;;;;;;5.80;2.40;;;;;;;18.83;39.16;99685.46;108130;1254;60450;-67
2023/11/07 01:12:52;;;;;;;4.90;2.50;;;;;;;18.89;39.25;99688.67;108289;1254;72544;-67
2023/11/07 01:15:19;;;;;;;6.30;2.70;;;;;;;18.90;39.37;99690.42;108318;1253;59988;-67
2023/11/07 01:17:45;;;;;;;5.80;2.90;;;;;;;18.94;38.98;99686.14;108318;1254;60763;-68
2023/11/07 01:20:12;;;;;;;5.70;2.70;;;;;;;19.11;39.18;99685.70;108290;1254;72584;-67
2023/11/07 01:22:40;;;;;;;7.10;2.50;;;;;;;19.13;38.91;99686.45;108161;1254;70291;-67
2023/11/07 01:25:07;;;;;;;8.70;3.00;;;;;;;19.27;38.71;99689.27;108219;1254;60511;-67
2023/11/07 01:27:34;;;;;;;10.30;2.80;;;;;;;19.19;38.89;99690.80;108208;1254;61066;-67
2023/11/07 01:30:01;;;;;;;8.20;2.60;;;;;;;19.15;38.85;99693.58;108055;1254;60541;-67
2023/11/07 01:32:28;;;;;;;9.30;3.10;;;;;;;19.15;38.90;99693.21;108060;1259;73844;-67
2023/11/07 01:34:55;;;;;;;6.00;2.50;;;;;;;19.35;38.78;99694.31;108237;1254;70216;-67
2023/11/07 01:37:21;;;;;;;6.70;2.60;;;;;;;19.17;38.90;99696.09;108112;1252;59081;-67
2023/11/07 01:39:48;;;;;;;6.60;2.80;;;;;;;19.32;38.89;99697.92;108140;1254;60433;-67
2023/11/07 01:42:14;;;;;;;11.40;2.60;;;;;;;19.40;38.61;99703.85;108220;1254;60272;-66
2023/11/07 01:44:49;;;;;;;5.10;2.40;;;;;;;19.35;38.77;99707.13;107915;1252;187174;-67
2023/11/07 01:48:20;;;;;;;5.50;2.40;;;;;;;16.91;43.76;99724.17;104960;1289;599898;-66
2023/11/07 01:50:48;;;;;;;;;;;;;;;18.07;41.31;99724.30;107196;1264;60930;-67
2023/11/07 01:53:15;;;;;;;5.40;2.30;;;;;;;18.28;40.90;99727.33;107607;1256;59071;-67
2023/11/07 01:55:42;;;;;;;4.90;2.50;;;;;;;18.41;40.76;99733.65;107490;1257;71885;-68
2023/11/07 01:58:10;;;;;;;6.60;2.90;;;;;;;18.51;40.46;99735.36;107473;1257;69958;-66
2023/11/07 02:00:39;;;;;;;6.40;2.80;;;;;;;18.62;40.45;99733.45;107442;1265;71286;-67
2023/11/07 02:03:07;;;;;;;8.70;2.70;;;;;;;18.68;40.29;99738.85;107486;1256;189755;-67
2023/11/07 02:05:35;;;;;;;4.00;2.50;;;;;;;18.49;40.44;99740.98;107559;1257;59901;-67
2023/11/07 02:08:05;;;;;;;8.00;3.20;;;;;;;18.42;40.80;99742.80;107732;1256;72212;-67
2023/11/07 02:10:32;;;;;;;5.60;3.00;;;;;;;18.61;40.54;99746.85;107701;1256;70592;-67
2023/11/07 02:13:00;;;;;;;5.30;2.40;;;;;;;18.68;40.41;99743.48;107543;1256;72684;-67
2023/11/07 02:15:27;;;;;;;7.60;2.70;;;;;;;18.56;40.71;99744.23;107585;1259;60917;-66
2023/11/07 02:17:54;;;;;;;6.80;2.60;;;;;;;18.41;40.64;99745.31;107602;1256;60269;-67
2023/11/07 02:20:22;;;;;;;9.00;2.80;;;;;;;18.45;40.91;99753.79;107758;1256;73532;-68
2023/11/07 02:22:59;;;;;;;4.30;2.50;;;;;;;18.51;40.63;99758.61;107682;1256;70095;-68
2023/11/07 02:25:27;;;;;;;4.90;2.70;;;;;;;18.36;40.90;99759.23;107773;1259;70944;-68
2023/11/07 02:27:54;;;;;;;5.30;2.50;;;;;;;18.36;41.15;99763.84;107575;1263;60989;-68
2023/11/07 02:30:22;;;;;;;5.70;2.50;;;;;;;18.40;40.92;99766.52;108088;1257;59529;-68
2023/11/07 02:32:50;;;;;;;5.60;2.50;;;;;;;18.43;40.93;99768.69;108062;1253;71873;-67
2023/11/07 02:35:18;;;;;;;9.90;2.80;;;;;;;18.49;40.94;99770.69;108063;1255;71148;-68
2023/11/07 02:37:46;;;;;;;5.30;2.70;;;;;;;18.53;40.64;99776.63;107997;1253;72670;-67
2023/11/07 02:40:14;;;;;;;5.00;2.40;;;;;;;18.56;40.81;99777.07;107952;1252;59571;-67
2023/11/07 02:42:41;;;;;;;3.80;2.20;;;;;;;18.58;40.59;99776.77;108075;1252;59020;-68
2023/11/07 02:45:09;;;;;;;5.50;2.80;;;;;;;18.49;40.67;99778.37;108023;1253;73020;-67
2023/11/07 02:47:36;;;;;;;8.00;2.70;;;;;;;18.45;40.95;99777.23;108056;1253;70280;-66
2023/11/07 02:50:10;;;;;;;7.30;2.60;;;;;;;18.45;40.74;99781.49;108039;1253;71729;-67
2023/11/07 02:52:38;;;;;;;6.60;2.60;;;;;;;18.32;41.07;99792.08;108062;1254;59664;-66
2023/11/07 02:55:06;;;;;;;4.20;2.40;;;;;;;18.39;41.11;99797.05;108067;1252;60220;-67
2023/11/07 02:57:34;;;;;;;5.80;2.80;;;;;;;18.37;40.97;99802.19;108070;1253;73019;-67
2023/11/07 03:00:02;;;;;;;6.70;2.90;;;;;;;18.38;41.06;99800.54;108039;1253;70386;-67
2023/11/07 03:02:29;;;;;;;9.00;2.80;;;;;;;18.61;40.58;99799.85;107985;1253;72617;-67
2023/11/07 03:04:57;;;;;;;7.20;2.90;;;;;;;18.54;40.62;99798.00;108066;1253;59894;-67
2023/11/07 03:07:24;;;;;;;4.70;2.90;;;;;;;18.54;40.79;99798.79;108020;1253;59990;-67
2023/11/07 03:09:51;;;;;;;5.00;2.90;;;;;;;18.46;40.65;99803.30;107933;1253;71889;-67
2023/11/07 03:12:19;;;;;;;10.70;3.50;;;;;;;18.24;41.10;99801.84;107967;1253;70163;-67
2023/11/07 03:14:46;;;;;;;6.40;3.00;;;;;;;18.25;41.26;99806.99;108082;1253;72678;-68
2023/11/07 03:17:13;;;;;;;5.60;2.50;;;;;;;18.20;41.23;99808.06;107822;1256;60007;-66
2023/11/07 03:19:42;;;;;;;4.90;2.70;;;;;;;18.36;41.19;99816.11;107865;1253;59840;-68
2023/11/07 03:22:10;;;;;;;5.90;2.60;;;;;;;18.36;40.99;99821.64;107972;1253;73056;-66
2023/11/07 03:24:37;;;;;;;8.20;3.00;;;;;;;18.35;41.13;99828.46;108093;1253;69092;-67
2023/11/07 03:27:05;;;;;;;6.10;2.60;;;;;;;18.24;41.26;99827.83;108074;1253;71634;-66
2023/11/07 03:29:32;;;;;;;7.90;2.80;;;;;;;18.20;41.29;99829.92;107862;1256;59575;-66
2023/11/07 03:32:00;;;;;;;4.50;2.30;;;;;;;18.34;41.22;99832.80;108049;1253;59995;-67
2023/11/07 03:34:27;;;;;;;4.10;2.40;;;;;;;18.34;41.11;99838.48;108066;1253;73023;-67
2023/11/07 03:36:55;;;;;;;5.70;2.70;;;;;;;18.44;40.99;99849.14;108068;1253;70170;-67
2023/11/07 03:39:22;;;;;;;5.10;2.70;;;;;;;18.58;40.79;99852.87;108086;1253;73942;-67
2023/11/07 03:41:49;;;;;;;7.60;3.30;;;;;;;18.57;40.63;99857.05;108023;1254;61181;-67
2023/11/07 03:44:17;;;;;;;4.90;2.80;;;;;;;18.57;40.89;99860.91;108026;1253;59590;-67
2023/11/07 03:46:44;;;;;;;6.10;2.90;;;;;;;18.55;40.77;99858.55;107997;1253;71856;-67
2023/11/07 03:49:13;;;;;;;8.70;3.70;;;;;;;18.59;40.66;99862.38;108097;1253;70585;-66
2023/11/07 03:51:41;;;;;;;17.20;5.60;;;;;;;18.43;41.08;99859.86;108036;1254;71403;-67
2023/11/07 03:54:08;;;;;;;11.40;4.90;;;;;;;18.26;41.19;99862.31;108045;1258;60856;-66
2023/11/07 03:56:35;;;;;;;12.90;4.60;;;;;;;18.47;40.96;99859.51;108070;1253;59859;-66
2023/11/07 03:59:03;;;;;;;11.40;4.30;;;;;;;18.40;41.13;99860.58;108001;1253;72749;-68
2023/11/07 04:01:37;;;;;;;15.90;4.30;;;;;;;18.31;41.13;99865.71;108129;1256;70059;-67
2023/11/07 04:04:06;;;;;;;8.60;4.30;;;;;;;18.14;41.47;99867.09;108029;1258;72683;-67
2023/11/07 04:06:33;;;;;;;7.20;3.50;;;;;;;18.18;41.55;99878.91;108012;1254;60993;-68
2023/11/07 04:09:01;;;;;;;10.20;3.70;;;;;;;18.27;41.62;99881.46;108069;1252;59902;-65
2023/11/07 04:11:28;;;;;;;11.60;4.10;;;;;;;18.13;41.77;99877.63;108045;1252;72994;-66
2023/11/07 04:13:56;;;;;;;7.20;3.20;;;;;;;18.24;41.37;99881.99;108071;1252;69934;-68
2023/11/07 04:16:23;;;;;;;6.70;3.50;;;;;;;18.28;41.54;99882.99;108102;1253;71323;-68
2023/11/07 04:18:53;;;;;;;9.50;4.20;;;;;;;18.25;41.59;99886.58;108164;1254;59620;-68
2023/11/07 04:21:21;;;;;;;9.20;3.50;;;;;;;18.15;41.61;99888.16;108090;1253;59980;-68
2023/11/07 04:23:49;;;;;;;9.70;3.60;;;;;;;18.31;41.64;99893.27;108093;1253;71795;-66
2023/11/07 04:26:17;;;;;;;6.80;3.10;;;;;;;18.35;41.44;99895.62;108073;1253;69612;-67
2023/11/07 04:28:46;;;;;;;9.50;3.90;;;;;;;18.40;41.42;99897.39;108042;1254;72415;-67
2023/11/07 04:31:13;;;;;;;7.50;3.20;;;;;;;18.18;41.71;99887.80;108035;1253;61068;-67
2023/11/07 04:33:41;;;;;;;6.50;2.90;;;;;;;17.92;42.07;99894.42;108039;1258;59481;-67
2023/11/07 04:36:09;;;;;;;7.00;3.60;;;;;;;17.69;42.77;99900.85;108036;1252;72992;-66
2023/11/07 04:38:39;;;;;;;5.40;3.20;;;;;;;17.57;42.93;99901.66;108077;1255;70709;-67
2023/11/07 04:41:06;;;;;;;5.50;3.60;;;;;;;17.52;42.97;99903.30;108103;1256;71387;-67
2023/11/07 04:43:35;;;;;;;6.50;3.90;;;;;;;17.76;42.72;99903.73;108103;1254;60944;-66
2023/11/07 04:46:03;;;;;;;9.40;3.30;;;;;;;17.68;42.75;99904.97;108119;1252;60171;-68
2023/11/07 04:48:34;;;;;;;7.30;3.30;;;;;;;17.92;42.45;99905.98;108063;1253;73009;-67
2023/11/07 04:51:02;;;;;;;8.30;3.30;;;;;;;18.05;42.24;99915.74;108092;1253;70431;-68
2023/11/07 04:53:30;;;;;;;7.00;3.20;;;;;;;17.83;42.42;99910.88;108041;1254;72671;-67
2023/11/07 04:55:57;;;;;;;8.70;3.80;;;;;;;17.93;42.42;99912.45;108067;1253;61462;-67
2023/11/07 04:58:25;;;;;;;9.40;3.20;;;;;;;17.88;42.47;99913.23;108092;1253;59970;-65
2023/11/07 05:00:53;;;;;;;8.60;3.60;;;;;;;17.94;42.42;99914.20;107999;1253;71364;-68
2023/11/07 05:03:21;;;;;;;8.30;3.90;;;;;;;17.85;42.50;99918.36;108026;1253;70330;-68
2023/11/07 05:06:02;;;;;;;7.90;3.80;;;;;;;17.85;42.62;99925.32;108066;1254;72840;-67
2023/11/07 05:08:30;;;;;;;9.40;3.70;;;;;;;18.17;42.30;99934.56;108067;1253;60909;-68
2023/11/07 05:10:57;;;;;;;11.50;3.80;;;;;;;18.03;42.43;99938.41;108117;1253;59526;-69
2023/11/07 05:13:25;;;;;;;9.60;3.50;;;;;;;18.01;42.28;99935.91;108043;1253;71849;-67
2023/11/07 05:15:53;;;;;;;5.10;3.00;;;;;;;18.17;42.34;99933.88;108052;1253;69320;-67
2023/11/07 05:18:21;;;;;;;7.90;3.60;;;;;;;18.04;42.30;99936.03;108041;1253;70432;-67
2023/11/07 05:20:49;;;;;;;11.20;4.00;;;;;;;18.22;42.18;99940.95;108114;1253;60810;-68
2023/11/07 05:23:22;;;;;;;10.70;4.10;;;;;;;18.32;41.91;99944.55;107997;1253;60047;-67
2023/11/07 05:25:49;;;;;;;7.90;3.30;;;;;;;18.35;41.68;99953.74;108082;1253;72745;-66
2023/11/07 05:28:17;;;;;;;11.80;3.80;;;;;;;18.06;42.29;99956.54;108132;1253;68908;-68
2023/11/07 05:30:44;;;;;;;5.40;2.90;;;;;;;17.93;42.74;99957.24;108059;1253;71392;-68
2023/11/07 05:33:12;;;;;;;6.80;3.50;;;;;;;17.99;42.55;99953.42;107693;1253;59950;-69
2023/11/07 05:35:40;;;;;;;8.10;3.50;;;;;;;18.13;42.48;99958.13;108072;1252;60085;-67
2023/11/07 05:38:09;;;;;;;7.00;3.30;;;;;;;18.06;42.50;99962.70;107925;1252;73159;-67
2023/11/07 05:40:37;;;;;;;11.50;3.70;;;;;;;18.29;42.19;99964.80;108145;1258;69038;-68
2023/11/07 05:43:04;;;;;;;7.80;3.60;;;;;;;18.30;42.13;99973.11;108105;1253;74588;-67
2023/11/07 05:45:31;;;;;;;7.30;3.80;;;;;;;18.27;42.06;99975.64;108131;1252;61039;-67
2023/11/07 05:47:59;;;;;;;9.10;3.50;;;;;;;18.58;41.75;99979.98;108085;1253;60061;-67
2023/11/07 05:50:26;;;;;;;6.90;3.50;;;;;;;18.76;41.27;99982.05;108024;1253;72303;-67
2023/11/07 05:52:54;;;;;;;14.00;3.90;;;;;;;18.70;41.32;99987.46;107906;1253;68281;-68
2023/11/07 05:55:21;;;;;;;6.40;3.30;;;;;;;18.71;41.46;99992.02;108001;1253;73280;-67
2023/11/07 05:57:51;;;;;;;6.50;3.30;;;;;;;18.51;41.65;99994.88;108062;1253;60337;-68
2023/11/07 06:00:19;;;;;;;7.40;3.30;;;;;;;18.45;42.01;99999.58;108113;1258;60303;-66
2023/11/07 06:02:47;;;;;;;7.90;3.50;;;;;;;18.63;41.79;100008.23;107996;1253;74430;-68
2023/11/07 06:05:15;;;;;;;6.80;3.30;;;;;;;18.85;41.67;100014.88;108112;1253;68864;-68
2023/11/07 06:07:42;;;;;;;7.10;3.20;;;;;;;19.37;41.18;100019.91;108111;1253;73096;-68
2023/11/07 06:10:10;;;;;;;8.00;3.50;;;;;;;19.87;39.87;100018.95;108056;1254;61770;-68
2023/11/07 06:12:37;;;;;;;7.10;3.20;;;;;;;20.58;38.46;100008.16;107977;1253;60278;-67
2023/11/07 06:15:07;;;;;;;7.30;3.20;;;;;;;21.37;37.54;100010.42;108088;1253;73868;-68
2023/11/07 06:17:35;;;;;;;8.10;3.30;;;;;;;21.90;36.03;100005.79;108100;1253;69210;-68
2023/11/07 06:20:03;;;;;;;6.90;2.90;;;;;;;22.48;34.95;100006.13;108080;1253;71785;-68
2023/11/07 06:22:30;;;;;;;5.30;3.00;;;;;;;22.96;34.24;100006.67;108218;1253;60812;-68
2023/11/07 06:24:58;;;;;;;12.60;3.50;;;;;;;23.57;33.50;100009.80;108127;1253;60608;-68
2023/11/07 06:27:26;;;;;;;5.80;3.20;;;;;;;23.79;32.72;100016.05;108022;1259;73795;-68
2023/11/07 06:29:54;;;;;;;7.20;3.10;;;;;;;24.35;31.96;100019.55;108042;1253;68992;-67
2023/11/07 06:32:21;;;;;;;5.80;2.60;;;;;;;24.82;31.24;100021.05;108063;1254;71367;-68
2023/11/07 06:34:49;;;;;;;6.00;3.20;;;;;;;25.00;30.60;100025.61;108073;1254;60355;-68
2023/11/07 06:37:16;;;;;;;6.80;3.10;;;;;;;24.93;30.44;100029.37;108055;1254;59215;-68
2023/11/07 06:39:46;;;;;;;5.70;2.60;;;;;;;25.17;30.41;100029.80;108089;1253;73068;-68
2023/11/07 06:42:14;;;;;;;6.10;2.90;;;;;;;25.35;29.91;100029.09;108068;1253;70288;-69
2023/11/07 06:44:41;;;;;;;8.60;3.10;;;;;;;25.29;29.80;100027.39;108071;1253;72845;-69
2023/11/07 06:47:09;;;;;;;8.20;2.80;;;;;;;25.50;29.83;100032.30;108111;1254;60316;-68
2023/11/07 06:49:36;;;;;;;6.00;2.90;;;;;;;26.23;28.95;100030.14;108075;1253;60338;-69
2023/11/07 06:52:05;;;;;;;4.50;2.70;;;;;;;26.49;28.28;100033.25;108091;1253;74003;-69
2023/11/07 06:54:32;;;;;;;6.20;2.50;;;;;;;26.76;27.95;100038.92;108106;1253;69214;-68
2023/11/07 06:57:00;;;;;;;7.60;2.90;;;;;;;27.18;27.51;100040.83;108002;1253;71519;-68
2023/11/07 06:59:27;;;;;;;6.00;2.90;;;;;;;27.42;27.32;100040.67;107990;1253;60487;-69
2023/11/07 07:01:55;;;;;;;5.50;2.50;;;;;;;27.29;27.06;100047.10;107912;1253;59091;-69
2023/11/07 07:04:22;;;;;;;6.20;2.80;;;;;;;27.36;27.01;100053.15;108081;1253;73894;-69
2023/11/07 07:06:50;;;;;;;7.70;2.70;;;;;;;27.56;26.87;100055.41;108032;1253;68842;-68
2023/11/07 07:09:18;;;;;;;4.80;2.80;;;;;;;27.35;26.99;100047.45;107941;1258;71423;-69
2023/11/07 07:11:47;;;;;;;5.20;3.00;;;;;;;27.90;26.54;100049.52;107891;1254;60323;-69
2023/11/07 07:14:15;;;;;;;6.30;2.70;;;;;;;28.08;25.89;100052.76;107924;1253;59232;-69
2023/11/07 07:16:43;;;;;;;7.20;3.10;;;;;;;28.13;25.71;100060.54;107884;1254;73851;-68
2023/11/07 07:19:17;;;;;;;4.30;2.40;;;;;;;28.20;25.80;100062.52;107952;1254;69735;-68
2023/11/07 07:21:47;;;;;;;12.80;2.80;;;;;;;28.29;25.69;100065.95;107989;1255;72906;-70
2023/11/07 07:24:21;;;;;;;7.90;3.20;;;;;;;27.70;26.27;100068.86;107917;1254;60362;-68
2023/11/07 07:26:50;;;;;;;9.70;3.10;;;;;;;27.41;26.74;100072.44;107982;1254;60307;-69
2023/11/07 07:29:18;;;;;;;7.30;2.70;;;;;;;28.09;25.64;100075.13;107912;1254;72757;-69
2023/11/07 07:31:45;;;;;;;6.70;2.70;;;;;;;28.05;25.82;100071.16;107983;1254;68713;-68
2023/11/07 07:34:13;;;;;;;5.70;3.10;;;;;;;28.16;25.85;100067.05;107967;1254;71288;-69
2023/11/07 07:36:44;;;;;;;5.90;2.70;;;;;;;28.53;25.50;100064.02;108044;1256;60414;-68
2023/11/07 07:39:27;;;;;;;7.70;3.10;;;;;;;29.07;24.87;100061.60;107902;1254;60785;-69
2023/11/07 07:41:58;;;;;;;9.90;2.80;;;;;;;28.97;24.67;100067.04;107979;1254;74225;-68
2023/11/07 07:44:32;;;;;;;6.70;3.00;;;;;;;29.16;24.69;100066.73;108021;1254;69250;-69
2023/11/07 07:47:00;;;;;;;7.60;3.00;;;;;;;29.19;24.34;100069.84;107971;1254;70368;-68
2023/11/07 07:49:30;;;;;;;4.10;2.70;;;;;;;29.51;24.07;100071.55;107911;1256;59112;-68
2023/11/07 07:51:58;;;;;;;6.80;2.60;;;;;;;29.51;23.97;100065.50;107932;1254;60442;-69
2023/11/07 07:54:26;;;;;;;9.30;3.10;;;;;;;29.40;23.94;100066.48;108054;1254;72581;-68
2023/11/07 07:57:14;;;;;;;6.10;3.20;;;;;;;29.50;23.90;100066.14;107953;1254;69973;-68
2023/11/07 07:59:45;;;;;;;12.80;3.30;;;;;;;29.65;23.78;100071.11;107898;1254;72667;-70
2023/11/07 08:02:13;;;;;;;5.70;2.90;;;;;;;29.46;23.94;100075.83;108118;1254;60308;-69
2023/11/07 08:04:41;;;;;;;9.10;3.00;;;;;;;29.26;23.99;100083.23;107989;1259;60026;-69
2023/11/07 08:07:08;;;;;;;5.20;2.90;;;;;;;29.15;24.16;100089.59;108062;1253;73845;-69
2023/11/07 08:09:40;;;;;;;9.50;3.20;;;;;;;29.23;24.07;100089.20;108074;1259;70104;-69
2023/11/07 08:12:10;;;;;;;5.50;2.80;;;;;;;29.38;23.85;100088.00;108029;1253;72899;-69
2023/11/07 08:14:37;;;;;;;6.60;2.60;;;;;;;29.46;23.96;100088.55;107988;1253;62259;-68
2023/11/07 08:17:05;;;;;;;6.60;2.50;;;;;;;29.34;23.66;100099.13;108046;1253;61222;-69
2023/11/07 08:19:33;;;;;;;4.90;2.70;;;;;;;29.43;23.95;100110.17;108041;1253;73674;-69
2023/11/07 08:22:00;;;;;;;6.90;2.70;;;;;;;29.62;23.59;100104.14;108081;1256;70005;-69
2023/11/07 08:24:31;;;;;;;4.00;2.40;;;;;;;29.60;23.44;100105.72;108014;1254;74913;-69
2023/11/07 08:26:58;;;;;;;6.70;2.60;;;;;;;29.41;23.66;100116.09;108141;1253;61876;-69
2023/11/07 08:29:26;;;;;;;5.40;2.40;;;;;;;29.22;23.79;100119.38;108065;1253;60278;-69
2023/11/07 08:31:54;;;;;;;5.40;2.60;;;;;;;28.90;24.30;100125.20;107936;1253;74531;-69
2023/11/07 08:34:24;;;;;;;7.60;2.20;;;;;;;28.91;24.07;100124.56;108043;1253;70628;-69
2023/11/07 08:36:52;;;;;;;11.40;3.10;;;;;;;29.30;23.84;100125.45;108120;1254;71398;-70
2023/11/07 08:39:35;;;;;;;5.90;2.60;;;;;;;29.93;23.19;100126.60;108043;1253;62333;-69
2023/11/07 08:42:04;;;;;;;7.90;2.30;;;;;;;30.34;22.90;100124.75;108054;1253;60407;-69
2023/11/07 08:44:32;;;;;;;4.90;2.50;;;;;;;30.43;22.41;100128.02;108022;1253;74343;-69
2023/11/07 08:47:00;;;;;;;6.80;2.50;;;;;;;30.52;22.61;100129.36;108054;1253;71762;-69
2023/11/07 08:49:28;;;;;;;6.50;2.40;;;;;;;30.39;22.46;100135.58;108091;1253;72794;-69
2023/11/07 08:51:57;;;;;;;6.20;2.20;;;;;;;30.31;22.30;100138.36;108074;1252;60316;-69
2023/11/07 08:54:25;;;;;;;7.60;2.30;;;;;;;30.13;22.55;100136.77;107979;1253;60447;-69
2023/11/07 08:56:52;;;;;;;8.10;2.30;;;;;;;30.49;22.22;100139.48;108170;1253;75711;-70
2023/11/07 08:59:20;;;;;;;7.60;2.30;;;;;;;31.05;21.98;100142.31;108111;1253;71080;-70
2023/11/07 09:01:47;;;;;;;6.70;2.40;;;;;;;31.53;21.33;100145.63;107987;1253;72788;-69
2023/11/07 09:04:15;;;;;;;7.00;2.10;;;;;;;32.17;20.94;100146.89;108050;1253;60453;-69
2023/11/07 09:06:43;;;;;;;6.60;2.50;;;;;;;32.64;20.31;100146.66;108012;1253;60761;-69
2023/11/07 09:09:14;;;;;;;4.40;2.20;;;;;;;33.02;20.16;100149.16;108086;1253;73336;-69
2023/11/07 09:11:43;;;;;;;5.20;2.30;;;;;;;33.18;19.96;100143.69;108068;1253;70383;-70
2023/11/07 09:14:12;;;;;;;6.50;2.20;;;;;;;32.90;19.89;100147.42;108020;1253;74849;-70
2023/11/07 09:16:39;;;;;;;6.30;1.90;;;;;;;32.57;20.02;100152.09;108184;1253;60316;-69
2023/11/07 09:19:07;;;;;;;4.10;2.10;;;;;;;32.15;20.39;100147.13;107953;1253;61300;-70
2023/11/07 09:21:37;;;;;;;3.70;2.00;;;;;;;32.44;20.09;100148.02;107995;1253;75990;-70
2023/11/07 09:24:05;;;;;;;5.70;2.20;;;;;;;32.61;20.11;100149.17;108019;1253;69910;-70
2023/11/07 09:26:34;;;;;;;5.60;2.00;;;;;;;32.41;20.23;100152.45;108056;1253;74787;-69
2023/11/07 09:29:08;;;;;;;5.50;2.00;;;;;;;32.04;20.28;100154.05;108118;1253;60433;-69
2023/11/07 09:31:35;;;;;;;7.30;2.00;;;;;;;31.96;20.54;100151.76;107929;1253;60439;-69
2023/11/07 09:34:03;;;;;;;11.00;2.70;;;;;;;31.86;20.72;100155.02;108061;1258;72926;-68
2023/11/07 09:36:31;;;;;;;8.00;2.30;;;;;;;31.90;20.20;100147.27;107993;1253;69361;-69
2023/11/07 09:38:59;;;;;;;8.10;2.70;;;;;;;32.23;20.19;100141.81;107973;1253;74086;-69
2023/11/07 09:41:27;;;;;;;7.30;2.70;;;;;;;32.52;20.18;100145.86;107965;1253;60407;-69
2023/11/07 09:43:54;;;;;;;4.80;2.60;;;;;;;32.40;20.05;100143.41;108088;1253;60989;-69
2023/11/07 09:46:22;;;;;;;5.10;2.30;;;;;;;32.03;20.26;100148.48;107945;1254;73773;-69
2023/11/07 09:48:53;;;;;;;7.00;1.90;;;;;;;32.16;20.01;100147.88;107861;1254;71562;-69
2023/11/07 09:51:21;;;;;;;5.30;2.00;;;;;;;32.43;19.65;100155.55;107915;1259;75188;-69
2023/11/07 09:53:49;;;;;;;7.20;2.00;;;;;;;32.47;19.53;100151.42;107965;1254;60549;-69
2023/11/07 09:56:17;;;;;;;5.20;1.60;;;;;;;33.01;19.31;100156.20;108129;1254;60236;-69
2023/11/07 09:58:45;;;;;;;5.50;1.60;;;;;;;33.43;18.84;100150.86;108053;1254;73229;-69
2023/11/07 10:01:14;;;;;;;4.50;2.00;;;;;;;33.35;18.77;100154.37;108226;1254;71087;-69
2023/11/07 10:03:43;;;;;;;4.90;2.10;;;;;;;33.21;18.92;100155.67;108150;1254;73797;-68
2023/11/07 10:06:12;;;;;;;5.10;2.00;;;;;;;33.16;18.95;100156.39;108217;1254;60258;-69
2023/11/07 10:08:42;;;;;;;5.60;2.00;;;;;;;33.38;18.58;100149.66;108170;1253;60425;-69
2023/11/07 10:11:14;;;;;;;4.70;2.30;;;;;;;33.71;18.82;100144.48;108181;1254;73956;-70
2023/11/07 10:14:01;;;;;;;5.30;1.80;;;;;;;33.96;18.21;100142.52;108183;1254;70978;-70
2023/11/07 10:16:36;;;;;;;4.50;1.90;;;;;;;33.96;18.23;100143.63;108132;1253;74998;-69
2023/11/07 10:19:04;;;;;;;7.90;2.10;;;;;;;34.03;18.09;100148.41;108172;1254;60519;-70
2023/11/07 10:21:34;;;;;;;5.60;1.80;;;;;;;34.39;17.55;100142.83;108190;1258;60518;-70
2023/11/07 10:24:02;;;;;;;3.90;1.70;;;;;;;34.04;17.25;100146.15;108185;1253;73985;-69
2023/11/07 10:26:31;;;;;;;4.50;1.80;;;;;;;33.73;17.71;100151.41;108207;1254;70717;-70
2023/11/07 10:29:14;;;;;;;5.00;2.20;;;;;;;33.70;18.04;100149.19;107993;1253;74712;-70
2023/11/07 10:31:59;;;;;;;3.80;1.60;;;;;;;33.81;18.26;100152.60;108154;1253;62386;-68
2023/11/07 10:34:27;;;;;;;5.40;1.50;;;;;;;33.98;17.63;100152.14;108167;1252;61675;-70
2023/11/07 10:36:55;;;;;;;5.20;1.90;;;;;;;33.59;17.53;100157.54;108172;1252;73961;-70
2023/11/07 10:39:25;;;;;;;8.20;2.10;;;;;;;33.32;17.67;100163.41;108163;1253;61806;-69
2023/11/07 10:41:57;;;;;;;3.70;1.50;;;;;;;32.67;18.12;100161.05;108172;1252;74679;-69
2023/11/07 10:44:25;;;;;;;3.40;1.60;;;;;;;31.92;18.49;100163.67;108149;1253;60857;-68
2023/11/07 10:46:54;;;;;;;4.90;1.50;;;;;;;31.57;19.05;100160.48;108110;1252;60397;-69
2023/11/07 10:49:22;;;;;;;4.30;1.80;;;;;;;31.45;19.07;100161.38;108143;1254;74935;-69
2023/11/07 10:51:49;;;;;;;4.50;1.80;;;;;;;31.65;19.04;100156.40;108156;1254;70568;-68
2023/11/07 10:54:20;;;;;;;7.40;1.90;;;;;;;31.90;19.06;100153.39;108098;1256;72914;-69
2023/11/07 10:56:49;;;;;;;4.30;1.90;;;;;;;31.97;18.99;100154.71;108143;1256;61180;-69
2023/11/07 10:59:24;;;;;;;4.40;1.40;;;;;;;31.73;18.95;100152.80;108273;1254;60186;-69
2023/11/07 11:01:52;;;;;;;6.80;1.70;;;;;;;32.04;18.74;100151.78;108038;1254;73219;-69
2023/11/07 11:04:23;;;;;;;3.80;1.40;;;;;;;31.90;18.60;100147.39;108211;1253;70427;-69
2023/11/07 11:06:52;;;;;;;10.60;1.90;;;;;;;31.06;18.98;100139.71;108074;1254;74005;-69
2023/11/07 11:09:22;;;;;;;3.20;1.30;;;;;;;31.03;19.15;100138.54;108180;1254;62297;-69
2023/11/07 11:11:51;;;;;;;5.30;1.70;;;;;;;31.06;19.48;100141.55;108170;1252;60313;-69
2023/11/07 11:14:19;;;;;;;4.30;1.50;;;;;;;30.94;19.57;100146.29;108263;1253;73923;-69
2023/11/07 11:16:47;;;;;;;3.10;1.30;;;;;;;31.24;19.26;100143.02;108154;1254;70982;-70
2023/11/07 11:19:28;;;;;;;2.80;1.30;;;;;;;31.02;19.21;100143.21;108134;1254;74519;-69
2023/11/07 11:22:10;;;;;;;3.20;1.30;;;;;;;31.01;18.92;100144.20;108129;1254;60629;-69
2023/11/07 11:24:50;;;;;;;2.70;1.30;;;;;;;31.20;18.59;100145.44;108185;1256;61767;-68
2023/11/07 11:27:29;;;;;;;4.90;1.10;;;;;;;31.09;18.68;100141.17;108222;1253;76435;-69
2023/11/07 11:29:57;;;;;;;6.60;1.70;;;;;;;31.61;18.54;100142.23;108228;1254;70653;-69